Time;durP1;ratioP1;P1;durP2;ratioP2;P2;SDS_P1;SDS_P2;PMS_P1;PMS_P2;Temp;Humidity;BMP_temperature;BMP_pressure;BME280_temperature;BME280_humidity;BME280_pressure;Samples;Min_cycle;Max_cycle;Signal;HPM_P1;HPM_P2
2024/04/22 00:00:31;;;;;;;12.60;12.20;;;;;;;;;;5451689;25;20469;-69
2024/04/22 00:03:00;;;;;;;11.97;11.67;;;;;;;;;;5450728;25;25588;-69
2024/04/22 00:05:26;;;;;;;11.97;11.67;;;;;;;;;;5449323;26;20486;-69
2024/04/22 00:07:55;;;;;;;12.00;11.70;;;;;;;;;;5450063;25;20581;-70
2024/04/22 00:10:23;;;;;;;11.70;11.40;;;;;;;;;;5450582;25;20961;-68
2024/04/22 00:12:52;;;;;;;11.47;11.17;;;;;;;;;;5451239;25;20540;-70
2024/04/22 00:15:18;;;;;;;11.83;11.53;;;;;;;;;;5449692;26;20480;-69
2024/04/22 00:17:50;;;;;;;11.70;11.40;;;;;;;;;;5449947;26;20566;-70
2024/04/22 00:20:16;;;;;;;11.40;11.10;;;;;;;;;;5450797;25;20536;-70
2024/04/22 00:22:45;;;;;;;11.93;11.63;;;;;;;;;;5449362;25;20469;-71
2024/04/22 00:25:11;;;;;;;11.53;11.23;;;;;;;;;;5450303;26;20612;-69
2024/04/22 00:27:40;;;;;;;11.47;11.17;;;;;;;;;;5452780;25;20935;-69
2024/04/22 00:30:07;;;;;;;11.13;10.83;;;;;;;;;;5449605;25;20856;-70
2024/04/22 00:32:36;;;;;;;11.50;11.20;;;;;;;;;;5448476;26;21252;-69
2024/04/22 00:35:05;;;;;;;11.50;11.20;;;;;;;;;;5450749;25;20477;-69
2024/04/22 00:37:34;;;;;;;11.67;11.37;;;;;;;;;;5450174;26;20470;-70
2024/04/22 00:40:00;;;;;;;11.80;11.50;;;;;;;;;;5450092;26;21043;-70
2024/04/22 00:42:30;;;;;;;11.67;11.37;;;;;;;;;;5453411;26;20591;-69
2024/04/22 00:44:56;;;;;;;11.33;11.03;;;;;;;;;;5452429;25;20944;-70
2024/04/22 00:47:25;;;;;;;11.77;11.47;;;;;;;;;;5453000;26;20461;-69
2024/04/22 00:49:52;;;;;;;11.60;11.30;;;;;;;;;;5454591;25;20523;-70
2024/04/22 00:52:23;;;;;;;11.70;11.40;;;;;;;;;;5452421;26;20468;-69
2024/04/22 00:54:49;;;;;;;11.70;11.40;;;;;;;;;;5453751;26;20995;-69
2024/04/22 00:57:19;;;;;;;11.40;11.10;;;;;;;;;;5467081;26;20531;-69
2024/04/22 00:59:45;;;;;;;11.50;11.20;;;;;;;;;;5494232;26;20548;-69
2024/04/22 01:02:15;;;;;;;11.60;11.30;;;;;;;;;;5493424;25;20581;-70
2024/04/22 01:04:42;;;;;;;11.50;11.20;;;;;;;;;;5501674;26;20569;-69
2024/04/22 01:07:11;;;;;;;11.13;10.83;;;;;;;;;;5503507;25;20536;-70
2024/04/22 01:09:41;;;;;;;11.17;10.87;;;;;;;;;;5499046;26;20621;-69
2024/04/22 01:12:10;;;;;;;11.30;11.00;;;;;;;;;;5504156;26;20520;-69
2024/04/22 01:14:37;;;;;;;11.07;10.77;;;;;;;;;;5490989;26;20536;-70
2024/04/22 01:17:06;;;;;;;11.20;10.90;;;;;;;;;;5497581;25;20542;-71
2024/04/22 01:19:32;;;;;;;11.20;10.90;;;;;;;;;;5502128;25;20468;-69
2024/04/22 01:22:04;;;;;;;11.80;11.50;;;;;;;;;;5505805;25;20467;-69
2024/04/22 01:24:31;;;;;;;11.40;11.10;;;;;;;;;;5507147;26;20460;-69
2024/04/22 01:27:01;;;;;;;11.00;10.70;;;;;;;;;;5490937;26;20476;-70
2024/04/22 01:29:27;;;;;;;10.40;10.20;;;;;;;;;;5486630;26;20606;-70
2024/04/22 01:31:56;;;;;;;10.37;10.17;;;;;;;;;;5492931;26;20910;-70
2024/04/22 01:34:25;;;;;;;10.50;10.30;;;;;;;;;;5506003;25;20568;-70
2024/04/22 01:36:54;;;;;;;9.23;9.03;;;;;;;;;;5499618;25;20472;-69
2024/04/22 01:39:23;;;;;;;8.80;8.70;;;;;;;;;;5491075;26;20464;-67
2024/04/22 01:41:54;;;;;;;9.70;9.50;;;;;;;;;;5496140;25;20474;-69
2024/04/22 01:44:21;;;;;;;10.07;9.87;;;;;;;;;;5491795;25;20899;-69
2024/04/22 01:46:50;;;;;;;9.40;9.20;;;;;;;;;;5483573;26;20485;-69
2024/04/22 01:49:16;;;;;;;8.80;8.70;;;;;;;;;;5481010;26;20530;-69
2024/04/22 01:51:46;;;;;;;8.70;8.60;;;;;;;;;;5492880;26;20484;-69
2024/04/22 01:54:13;;;;;;;8.73;8.63;;;;;;;;;;5485169;26;20473;-69
2024/04/22 01:56:45;;;;;;;8.63;8.53;;;;;;;;;;5501524;26;20915;-69
2024/04/22 01:59:12;;;;;;;8.77;8.67;;;;;;;;;;5500389;26;20631;-69
2024/04/22 02:01:42;;;;;;;8.93;8.77;;;;;;;;;;5480727;26;20603;-70
2024/04/22 02:04:09;;;;;;;9.50;9.30;;;;;;;;;;5488495;26;20528;-69
2024/04/22 02:06:38;;;;;;;8.17;8.07;;;;;;;;;;5494604;25;20885;-70
2024/04/22 02:09:04;;;;;;;8.30;8.20;;;;;;;;;;5496474;25;20483;-69
2024/04/22 02:11:33;;;;;;;8.80;8.70;;;;;;;;;;5493050;26;20454;-70
2024/04/22 02:14:02;;;;;;;8.63;8.53;;;;;;;;;;5487998;25;20612;-69
2024/04/22 02:16:31;;;;;;;8.13;8.03;;;;;;;;;;5495044;26;20949;-70
2024/04/22 02:18:58;;;;;;;8.50;8.40;;;;;;;;;;5489587;26;20472;-69
2024/04/22 02:21:28;;;;;;;7.80;7.70;;;;;;;;;;5491528;25;20476;-70
2024/04/22 02:23:55;;;;;;;7.50;7.40;;;;;;;;;;5504402;26;20476;-69
2024/04/22 02:26:23;;;;;;;7.70;7.60;;;;;;;;;;5479826;25;20893;-70
2024/04/22 02:28:49;;;;;;;8.27;8.17;;;;;;;;;;5500388;26;20552;-70
2024/04/22 02:31:22;;;;;;;7.93;7.83;;;;;;;;;;5495557;25;20531;-69
2024/04/22 02:33:48;;;;;;;7.57;7.47;;;;;;;;;;5486990;26;21154;-69
2024/04/22 02:36:17;;;;;;;7.93;7.83;;;;;;;;;;5499388;26;21108;-69
2024/04/22 02:38:43;;;;;;;7.97;7.87;;;;;;;;;;5493718;26;21138;-70
2024/04/22 02:41:13;;;;;;;7.97;7.87;;;;;;;;;;5505865;26;21062;-69
2024/04/22 02:43:39;;;;;;;8.10;8.00;;;;;;;;;;5491595;26;21202;-69
2024/04/22 02:46:09;;;;;;;7.53;7.43;;;;;;;;;;5499423;25;21103;-70
2024/04/22 02:48:38;;;;;;;7.30;7.20;;;;;;;;;;5493180;26;21067;-70
2024/04/22 02:51:07;;;;;;;7.30;7.20;;;;;;;;;;5490038;26;20461;-68
2024/04/22 02:53:34;;;;;;;7.17;7.07;;;;;;;;;;5481334;25;20573;-69
2024/04/22 02:56:03;;;;;;;7.00;6.90;;;;;;;;;;5489749;26;20888;-70
2024/04/22 02:58:29;;;;;;;7.20;7.10;;;;;;;;;;5496798;26;20535;-69
2024/04/22 03:00:58;;;;;;;7.30;7.20;;;;;;;;;;5493987;26;20482;-70
2024/04/22 03:03:24;;;;;;;7.37;7.27;;;;;;;;;;5492405;25;20532;-70
2024/04/22 03:05:59;;;;;;;7.00;6.90;;;;;;;;;;5498072;25;20458;-69
2024/04/22 03:08:25;;;;;;;6.97;6.87;;;;;;;;;;5494389;26;20516;-69
2024/04/22 03:10:55;;;;;;;7.37;7.27;;;;;;;;;;5486993;26;20514;-69
2024/04/22 03:13:21;;;;;;;7.63;7.53;;;;;;;;;;5492159;26;20480;-69
2024/04/22 03:15:49;;;;;;;7.37;7.27;;;;;;;;;;5488733;25;20616;-69
2024/04/22 03:18:16;;;;;;;7.37;7.27;;;;;;;;;;5500233;26;21122;-70
2024/04/22 03:20:45;;;;;;;6.77;6.67;;;;;;;;;;5498802;25;20595;-69
2024/04/22 03:23:14;;;;;;;7.80;7.70;;;;;;;;;;5497920;26;20478;-69
2024/04/22 03:25:43;;;;;;;7.07;6.97;;;;;;;;;;5499398;25;20474;-71
2024/04/22 03:28:09;;;;;;;7.20;7.10;;;;;;;;;;5495135;26;20536;-70
2024/04/22 03:30:38;;;;;;;7.73;7.63;;;;;;;;;;5486295;26;20577;-68
2024/04/22 03:33:05;;;;;;;7.60;7.50;;;;;;;;;;5496957;25;20532;-68
2024/04/22 03:35:34;;;;;;;7.37;7.27;;;;;;;;;;5496018;26;20563;-68
2024/04/22 03:38:03;;;;;;;7.93;7.83;;;;;;;;;;5497329;25;20525;-69
2024/04/22 03:40:35;;;;;;;7.50;7.40;;;;;;;;;;5495026;26;21182;-70
2024/04/22 03:43:04;;;;;;;8.03;7.93;;;;;;;;;;5485756;25;20488;-68
2024/04/22 03:45:35;;;;;;;7.90;7.80;;;;;;;;;;5496575;26;20514;-68
2024/04/22 03:50:49;;;;;;;7.40;7.30;;;;;;;;;;5506253;25;20536;-69
2024/04/22 03:53:19;;;;;;;7.03;6.93;;;;;;;;;;5494047;25;20513;-69
2024/04/22 03:55:48;;;;;;;7.50;7.40;;;;;;;;;;5495533;25;20479;-69
2024/04/22 03:58:17;;;;;;;7.20;7.10;;;;;;;;;;5489375;26;20473;-68
2024/04/22 04:00:43;;;;;;;7.20;7.10;;;;;;;;;;5496792;26;20529;-69
2024/04/22 04:03:12;;;;;;;7.77;7.67;;;;;;;;;;5485288;26;20462;-69
2024/04/22 04:05:39;;;;;;;7.60;7.50;;;;;;;;;;5498431;25;20526;-68
2024/04/22 04:08:08;;;;;;;7.17;7.07;;;;;;;;;;5500457;26;21098;-69
2024/04/22 04:10:35;;;;;;;8.00;7.90;;;;;;;;;;5498138;25;20881;-68
2024/04/22 04:13:08;;;;;;;8.00;7.90;;;;;;;;;;5506015;26;20563;-68
2024/04/22 04:15:34;;;;;;;8.13;8.03;;;;;;;;;;5494665;26;20601;-69
2024/04/22 04:18:03;;;;;;;8.03;7.93;;;;;;;;;;5505557;26;20474;-68
2024/04/22 04:20:29;;;;;;;8.47;8.37;;;;;;;;;;5513621;25;20531;-68
2024/04/22 04:22:58;;;;;;;8.13;8.03;;;;;;;;;;5493564;25;21011;-69
2024/04/22 04:25:25;;;;;;;7.93;7.83;;;;;;;;;;5495702;26;20973;-68
2024/04/22 04:27:55;;;;;;;7.73;7.63;;;;;;;;;;5516793;26;20524;-67
2024/04/22 04:30:23;;;;;;;7.67;7.57;;;;;;;;;;5504511;26;20546;-68
2024/04/22 04:32:52;;;;;;;7.73;7.63;;;;;;;;;;5499808;25;20468;-69
2024/04/22 04:35:19;;;;;;;7.77;7.67;;;;;;;;;;5503129;25;20880;-69
2024/04/22 04:37:50;;;;;;;7.73;7.63;;;;;;;;;;5510836;26;20458;-68
2024/04/22 04:40:16;;;;;;;8.20;8.10;;;;;;;;;;5500516;26;20472;-69
2024/04/22 04:42:45;;;;;;;8.30;8.20;;;;;;;;;;5502545;25;20460;-69
2024/04/22 04:45:12;;;;;;;7.80;7.70;;;;;;;;;;5508393;26;20477;-69
2024/04/22 04:47:46;;;;;;;7.73;7.63;;;;;;;;;;5497938;26;20539;-68
2024/04/22 04:50:13;;;;;;;7.00;6.90;;;;;;;;;;5502159;26;21025;-69
2024/04/22 04:52:42;;;;;;;8.23;8.13;;;;;;;;;;5499517;26;20471;-68
2024/04/22 04:55:09;;;;;;;8.03;7.93;;;;;;;;;;5504626;26;21074;-68
2024/04/22 04:57:38;;;;;;;8.07;7.97;;;;;;;;;;5500283;26;20893;-69
2024/04/22 05:00:06;;;;;;;8.50;8.40;;;;;;;;;;5494437;26;20474;-69
2024/04/22 05:02:34;;;;;;;8.30;8.20;;;;;;;;;;5496068;25;20907;-68
2024/04/22 05:05:04;;;;;;;8.10;8.00;;;;;;;;;;5498583;26;20541;-68
2024/04/22 05:07:34;;;;;;;7.83;7.73;;;;;;;;;;5494639;26;21057;-68
2024/04/22 05:10:00;;;;;;;7.90;7.80;;;;;;;;;;5497366;25;21067;-70
2024/04/22 05:12:28;;;;;;;7.73;7.63;;;;;;;;;;5501377;25;20470;-70
2024/04/22 05:14:55;;;;;;;7.60;7.50;;;;;;;;;;5507121;25;20476;-71
2024/04/22 05:17:24;;;;;;;7.90;7.80;;;;;;;;;;5496429;26;20690;-71
2024/04/22 05:19:53;;;;;;;7.70;7.60;;;;;;;;;;5484868;26;20466;-70
2024/04/22 05:22:22;;;;;;;8.10;8.00;;;;;;;;;;5506084;26;20550;-68
2024/04/22 05:24:52;;;;;;;7.87;7.77;;;;;;;;;;5495615;25;20476;-69
2024/04/22 05:27:19;;;;;;;8.20;8.10;;;;;;;;;;5516010;25;20468;-68
2024/04/22 05:29:49;;;;;;;8.00;7.90;;;;;;;;;;5500737;26;20524;-69
2024/04/22 05:32:15;;;;;;;8.23;8.13;;;;;;;;;;5505796;26;20529;-68
2024/04/22 05:37:31;;;;;;;8.10;8.00;;;;;;;;;;5512800;26;20566;-70
2024/04/22 05:39:58;;;;;;;7.90;7.80;;;;;;;;;;5518493;26;20464;-69
2024/04/22 05:42:27;;;;;;;7.80;7.70;;;;;;;;;;5495558;25;20464;-70
2024/04/22 05:44:56;;;;;;;7.30;7.20;;;;;;;;;;5503480;26;20475;-68
2024/04/22 05:47:25;;;;;;;7.33;7.23;;;;;;;;;;5518824;26;20525;-69
2024/04/22 05:49:54;;;;;;;7.73;7.63;;;;;;;;;;5501940;26;20476;-68
2024/04/22 05:52:22;;;;;;;7.70;7.60;;;;;;;;;;5510413;25;20456;-69
2024/04/22 05:54:55;;;;;;;7.43;7.33;;;;;;;;;;5502741;26;20567;-68
2024/04/22 05:57:21;;;;;;;7.60;7.50;;;;;;;;;;5511292;25;20537;-70
2024/04/22 05:59:51;;;;;;;7.57;7.47;;;;;;;;;;5500522;26;20576;-69
2024/04/22 06:02:17;;;;;;;7.90;7.80;;;;;;;;;;5497732;25;20549;-68
2024/04/22 06:04:46;;;;;;;7.50;7.40;;;;;;;;;;5494932;25;20515;-70
2024/04/22 06:07:12;;;;;;;8.40;8.30;;;;;;;;;;5490474;26;20608;-70
2024/04/22 06:09:41;;;;;;;8.03;7.93;;;;;;;;;;5504365;26;20497;-71
2024/04/22 06:12:11;;;;;;;8.10;8.00;;;;;;;;;;5503825;25;21007;-69
2024/04/22 06:14:39;;;;;;;6.73;6.63;;;;;;;;;;5501687;26;20492;-69
2024/04/22 06:17:06;;;;;;;6.87;6.77;;;;;;;;;;5513686;26;20539;-69
2024/04/22 06:19:34;;;;;;;7.37;7.27;;;;;;;;;;5494428;26;20525;-68
2024/04/22 06:22:01;;;;;;;6.90;6.80;;;;;;;;;;5495739;26;20867;-69
2024/04/22 06:24:31;;;;;;;7.07;6.97;;;;;;;;;;5501748;26;20957;-69
2024/04/22 06:26:58;;;;;;;8.27;8.17;;;;;;;;;;5490366;25;20955;-69
2024/04/22 06:29:31;;;;;;;9.27;9.07;;;;;;;;;;5495721;25;20597;-70
2024/04/22 06:31:57;;;;;;;9.23;9.03;;;;;;;;;;5497449;25;20483;-68
2024/04/22 06:34:26;;;;;;;10.30;10.10;;;;;;;;;;5486155;25;20559;-69
2024/04/22 06:36:52;;;;;;;9.57;9.37;;;;;;;;;;5486557;25;20481;-72
2024/04/22 06:39:21;;;;;;;9.10;8.90;;;;;;;;;;5479580;25;20477;-70
2024/04/22 06:41:47;;;;;;;10.13;9.93;;;;;;;;;;5495526;25;20496;-70
2024/04/22 06:44:16;;;;;;;9.83;9.63;;;;;;;;;;5500009;25;20897;-68
2024/04/22 06:46:45;;;;;;;10.57;10.37;;;;;;;;;;5499171;25;21223;-68
2024/04/22 06:49:14;;;;;;;11.53;11.23;;;;;;;;;;5491195;25;20513;-69
2024/04/22 06:51:40;;;;;;;11.30;11.00;;;;;;;;;;5500594;25;20483;-69
2024/04/22 06:54:09;;;;;;;11.57;11.27;;;;;;;;;;5494770;25;20532;-70
2024/04/22 06:56:35;;;;;;;12.13;11.83;;;;;;;;;;5494743;25;20488;-69
2024/04/22 06:59:04;;;;;;;11.90;11.60;;;;;;;;;;5494444;25;20479;-70
2024/04/22 07:01:31;;;;;;;12.80;12.40;;;;;;;;;;5498363;25;20597;-70
2024/04/22 07:04:04;;;;;;;12.70;12.30;;;;;;;;;;5496805;25;20488;-70
2024/04/22 07:06:30;;;;;;;13.00;12.60;;;;;;;;;;5499742;25;20489;-68
2024/04/22 07:09:01;;;;;;;13.10;12.70;;;;;;;;;;5494117;25;20539;-69
2024/04/22 07:11:27;;;;;;;13.10;12.70;;;;;;;;;;5489343;25;20849;-70
2024/04/22 07:13:57;;;;;;;13.00;12.60;;;;;;;;;;5493281;25;21066;-70
2024/04/22 07:16:27;;;;;;;13.60;13.20;;;;;;;;;;5498078;25;20558;-69
2024/04/22 07:18:53;;;;;;;14.20;13.70;;;;;;;;;;5497150;25;20481;-70
2024/04/22 07:21:25;;;;;;;14.37;13.87;;;;;;;;;;5491379;25;20494;-70
2024/04/22 07:23:51;;;;;;;15.03;14.47;;;;;;;;;;5492047;25;21327;-68
2024/04/22 07:26:20;;;;;;;14.93;14.43;;;;;;;;;;5488361;25;20589;-69
2024/04/22 07:28:46;;;;;;;15.40;14.80;;;;;;;;;;5496697;25;20665;-70
2024/04/22 07:31:16;;;;;;;14.70;14.20;;;;;;;;;;5496105;25;20535;-70
2024/04/22 07:33:42;;;;;;;15.40;14.80;;;;;;;;;;5502155;25;20478;-69
2024/04/22 07:36:15;;;;;;;14.80;14.30;;;;;;;;;;5490406;25;20472;-69
2024/04/22 07:38:45;;;;;;;15.03;14.53;;;;;;;;;;5493597;25;20553;-68
2024/04/22 07:41:14;;;;;;;14.90;14.40;;;;;;;;;;5486927;25;20467;-72
2024/04/22 07:43:41;;;;;;;15.30;14.80;;;;;;;;;;5490749;25;22990;-70
2024/04/22 07:46:10;;;;;;;15.23;14.73;;;;;;;;;;5494994;25;20593;-69
2024/04/22 07:48:37;;;;;;;15.63;15.03;;;;;;;;;;5496937;25;20530;-70
2024/04/22 07:51:06;;;;;;;15.40;14.87;;;;;;;;;;5492774;25;20532;-70
2024/04/22 07:53:33;;;;;;;15.80;15.20;;;;;;;;;;5495149;25;20560;-68
2024/04/22 07:56:04;;;;;;;15.67;15.07;;;;;;;;;;5492580;25;20466;-68
2024/04/22 07:58:31;;;;;;;15.70;15.10;;;;;;;;;;5493316;25;20613;-70
2024/04/22 08:01:02;;;;;;;15.30;14.80;;;;;;;;;;5495357;25;20481;-69
2024/04/22 08:03:29;;;;;;;15.40;14.90;;;;;;;;;;5493687;25;20540;-69
2024/04/22 08:06:00;;;;;;;15.23;14.73;;;;;;;;;;5498655;25;20482;-70
2024/04/22 08:08:28;;;;;;;15.67;15.10;;;;;;;;;;5494384;25;20536;-70
2024/04/22 08:10:58;;;;;;;14.73;14.23;;;;;;;;;;5486525;25;20598;-69
2024/04/22 08:13:26;;;;;;;15.07;14.57;;;;;;;;;;5493042;25;20477;-69
2024/04/22 08:15:55;;;;;;;15.33;14.83;;;;;;;;;;5493533;25;20595;-69
2024/04/22 08:18:22;;;;;;;15.73;15.13;;;;;;;;;;5495368;25;20548;-69
2024/04/22 08:20:51;;;;;;;15.70;15.10;;;;;;;;;;5496331;25;20541;-68
2024/04/22 08:23:18;;;;;;;15.67;15.07;;;;;;;;;;5487501;25;20472;-68
2024/04/22 08:25:47;;;;;;;15.50;14.90;;;;;;;;;;5494128;25;20478;-69
2024/04/22 08:28:14;;;;;;;15.70;15.10;;;;;;;;;;5497294;25;20485;-68
2024/04/22 08:30:45;;;;;;;15.60;15.00;;;;;;;;;;5496214;25;20583;-69
2024/04/22 08:33:11;;;;;;;15.23;14.73;;;;;;;;;;5493680;25;20587;-72
2024/04/22 08:35:47;;;;;;;14.73;14.23;;;;;;;;;;5490086;25;20472;-68
2024/04/22 08:38:13;;;;;;;15.40;14.80;;;;;;;;;;5498171;25;20514;-72
2024/04/22 08:40:45;;;;;;;15.90;15.30;;;;;;;;;;5492504;25;20568;-71
2024/04/22 08:43:13;;;;;;;16.03;15.43;;;;;;;;;;5495871;25;20469;-71
2024/04/22 08:45:44;;;;;;;15.80;15.20;;;;;;;;;;5494380;25;20477;-68
2024/04/22 08:48:13;;;;;;;15.97;15.37;;;;;;;;;;5489851;25;20535;-69
2024/04/22 08:50:43;;;;;;;15.90;15.30;;;;;;;;;;5498005;25;20479;-67
2024/04/22 08:53:10;;;;;;;16.10;15.50;;;;;;;;;;5495918;25;20537;-69
2024/04/22 08:55:40;;;;;;;15.70;15.10;;;;;;;;;;5492236;25;20473;-68
2024/04/22 08:58:07;;;;;;;16.20;15.60;;;;;;;;;;5490524;25;20610;-69
2024/04/22 09:00:36;;;;;;;16.33;15.70;;;;;;;;;;5490031;25;20492;-69
2024/04/22 09:03:02;;;;;;;16.50;15.90;;;;;;;;;;5496754;25;20505;-68
2024/04/22 09:05:34;;;;;;;16.93;16.23;;;;;;;;;;5494540;25;20470;-68
2024/04/22 09:08:03;;;;;;;17.13;16.43;;;;;;;;;;5499302;25;20869;-68
2024/04/22 09:10:34;;;;;;;17.20;16.50;;;;;;;;;;5485196;25;20484;-70
2024/04/22 09:13:03;;;;;;;17.37;16.67;;;;;;;;;;5501475;25;20527;-67
2024/04/22 09:15:29;;;;;;;17.50;16.80;;;;;;;;;;5495185;25;20480;-68
2024/04/22 09:17:59;;;;;;;17.40;16.70;;;;;;;;;;5500355;25;20487;-67
2024/04/22 09:20:26;;;;;;;16.87;16.27;;;;;;;;;;5489496;25;20477;-68
2024/04/22 09:22:58;;;;;;;16.63;16.03;;;;;;;;;;5491534;25;20482;-68
2024/04/22 09:25:25;;;;;;;16.27;15.67;;;;;;;;;;5490500;25;20538;-67
2024/04/22 09:27:54;;;;;;;17.20;16.60;;;;;;;;;;5496842;25;20473;-68
2024/04/22 09:30:21;;;;;;;17.33;16.73;;;;;;;;;;5497390;25;21004;-68
2024/04/22 09:32:50;;;;;;;16.93;16.33;;;;;;;;;;5496036;25;20963;-68
2024/04/22 09:35:17;;;;;;;16.87;16.27;;;;;;;;;;5490538;25;20472;-69
2024/04/22 09:37:46;;;;;;;16.87;16.27;;;;;;;;;;5499576;25;20883;-69
2024/04/22 09:40:15;;;;;;;16.77;16.17;;;;;;;;;;5488981;25;20601;-67
2024/04/22 09:42:45;;;;;;;17.50;16.90;;;;;;;;;;5495021;25;20494;-67
2024/04/22 09:45:12;;;;;;;17.10;16.50;;;;;;;;;;5496329;25;20473;-67
2024/04/22 09:47:42;;;;;;;16.50;15.90;;;;;;;;;;5495292;25;20974;-69
2024/04/22 09:50:08;;;;;;;17.30;16.70;;;;;;;;;;5499404;25;20604;-68
2024/04/22 09:52:37;;;;;;;17.10;16.50;;;;;;;;;;5488839;25;20530;-67
2024/04/22 09:55:05;;;;;;;17.43;16.80;;;;;;;;;;5495789;25;20472;-68
2024/04/22 09:57:38;;;;;;;16.50;15.90;;;;;;;;;;5495420;25;20541;-67
2024/04/22 10:00:06;;;;;;;16.50;15.90;;;;;;;;;;5496557;25;20529;-68
2024/04/22 10:02:36;;;;;;;15.43;14.93;;;;;;;;;;5495768;25;20507;-67
2024/04/22 10:05:03;;;;;;;16.17;15.57;;;;;;;;;;5500554;25;20848;-69
2024/04/22 10:07:32;;;;;;;16.10;15.50;;;;;;;;;;5496403;25;20455;-69
2024/04/22 10:09:59;;;;;;;15.93;15.43;;;;;;;;;;5501667;25;20673;-69
2024/04/22 10:12:28;;;;;;;16.27;15.67;;;;;;;;;;5485095;25;20475;-70
2024/04/22 10:15:06;;;;;;;15.80;15.30;;;;;;;;;;5490927;25;20493;-70
2024/04/22 10:17:35;;;;;;;16.40;15.80;;;;;;;;;;5496619;25;20478;-69
2024/04/22 10:20:02;;;;;;;16.10;15.50;;;;;;;;;;5494201;25;20480;-71
2024/04/22 10:22:33;;;;;;;16.07;15.47;;;;;;;;;;5494867;25;21074;-67
2024/04/22 10:25:02;;;;;;;16.30;15.70;;;;;;;;;;5491960;25;21090;-67
2024/04/22 10:27:31;;;;;;;16.07;15.53;;;;;;;;;;5497296;25;20832;-67
2024/04/22 10:29:58;;;;;;;16.07;15.57;;;;;;;;;;5502121;25;20933;-69
2024/04/22 10:32:29;;;;;;;16.83;16.23;;;;;;;;;;5482181;25;20884;-67
2024/04/22 10:34:56;;;;;;;15.83;15.33;;;;;;;;;;5498699;25;20546;-68
2024/04/22 10:37:25;;;;;;;15.70;15.20;;;;;;;;;;5490063;25;20461;-66
2024/04/22 10:39:51;;;;;;;15.80;15.30;;;;;;;;;;5491710;25;20552;-67
2024/04/22 10:42:20;;;;;;;15.70;15.20;;;;;;;;;;5488975;25;20586;-67
2024/04/22 10:44:47;;;;;;;16.03;15.53;;;;;;;;;;5495904;25;20621;-67
2024/04/22 10:47:16;;;;;;;15.63;15.13;;;;;;;;;;5494696;25;20484;-67
2024/04/22 10:49:46;;;;;;;16.43;15.83;;;;;;;;;;5494769;25;20470;-69
2024/04/22 10:52:15;;;;;;;16.37;15.77;;;;;;;;;;5490437;25;20464;-69
2024/04/22 10:54:41;;;;;;;16.80;16.20;;;;;;;;;;5486293;25;20547;-71
2024/04/22 10:57:10;;;;;;;16.70;16.10;;;;;;;;;;5489114;25;21220;-68
2024/04/22 10:59:36;;;;;;;16.83;16.23;;;;;;;;;;5497435;25;20491;-69
2024/04/22 11:02:05;;;;;;;17.00;16.40;;;;;;;;;;5498496;25;20574;-70
2024/04/22 11:04:31;;;;;;;16.60;16.00;;;;;;;;;;5492275;25;20557;-69
2024/04/22 11:07:03;;;;;;;16.10;15.60;;;;;;;;;;5488762;25;20476;-69
2024/04/22 11:09:32;;;;;;;16.60;16.00;;;;;;;;;;5497344;25;21268;-69
2024/04/22 11:12:00;;;;;;;16.83;16.23;;;;;;;;;;5488042;25;20576;-69
2024/04/22 11:14:32;;;;;;;17.70;17.00;;;;;;;;;;5494221;25;20497;-69
2024/04/22 11:16:58;;;;;;;16.80;16.20;;;;;;;;;;5492696;25;20478;-69
2024/04/22 11:19:27;;;;;;;16.50;15.90;;;;;;;;;;5493599;25;20814;-71
2024/04/22 11:21:53;;;;;;;16.63;16.03;;;;;;;;;;5497331;25;20504;-68
2024/04/22 11:24:25;;;;;;;15.87;15.27;;;;;;;;;;5494699;25;20525;-67
2024/04/22 11:26:51;;;;;;;15.90;15.30;;;;;;;;;;5488208;25;21200;-67
2024/04/22 11:29:20;;;;;;;16.10;15.50;;;;;;;;;;5497608;25;20610;-67
2024/04/22 11:31:46;;;;;;;16.03;15.43;;;;;;;;;;5495623;25;20560;-66
2024/04/22 11:34:15;;;;;;;15.90;15.30;;;;;;;;;;5488862;25;20526;-69
2024/04/22 11:36:43;;;;;;;15.83;15.23;;;;;;;;;;5490521;25;20477;-67
2024/04/22 11:39:14;;;;;;;16.23;15.63;;;;;;;;;;5495360;25;20477;-69
2024/04/22 11:41:43;;;;;;;16.13;15.53;;;;;;;;;;5495221;25;20841;-68
2024/04/22 11:44:12;;;;;;;15.93;15.33;;;;;;;;;;5492690;25;20476;-68
2024/04/22 11:46:39;;;;;;;16.10;15.50;;;;;;;;;;5493264;25;20573;-69
2024/04/22 11:49:08;;;;;;;16.23;15.63;;;;;;;;;;5497293;25;20528;-70
2024/04/22 11:51:35;;;;;;;15.63;15.13;;;;;;;;;;5490236;25;20499;-68
2024/04/22 11:54:04;;;;;;;15.50;15.00;;;;;;;;;;5492721;25;20528;-70
2024/04/22 11:56:35;;;;;;;15.53;15.03;;;;;;;;;;5498462;25;20539;-70
2024/04/22 11:59:07;;;;;;;16.17;15.57;;;;;;;;;;5494167;25;20549;-69
2024/04/22 12:01:34;;;;;;;15.43;14.93;;;;;;;;;;5496367;25;20485;-69
2024/04/22 12:04:04;;;;;;;15.53;15.03;;;;;;;;;;5497445;25;20480;-69
2024/04/22 12:06:30;;;;;;;15.60;15.10;;;;;;;;;;5496790;25;20556;-68
2024/04/22 12:08:59;;;;;;;15.73;15.23;;;;;;;;;;5496268;25;20812;-67
2024/04/22 12:11:25;;;;;;;16.17;15.57;;;;;;;;;;5494662;25;20523;-67
2024/04/22 12:13:54;;;;;;;16.13;15.53;;;;;;;;;;5488899;25;20466;-68
2024/04/22 12:16:23;;;;;;;16.20;15.60;;;;;;;;;;5491334;25;20537;-67
2024/04/22 12:18:52;;;;;;;16.40;15.80;;;;;;;;;;5495837;25;20480;-68
2024/04/22 12:21:19;;;;;;;15.63;15.13;;;;;;;;;;5493378;25;20850;-66
2024/04/22 12:23:48;;;;;;;15.40;14.90;;;;;;;;;;5491304;25;20819;-67
2024/04/22 12:26:14;;;;;;;16.20;15.60;;;;;;;;;;5488246;25;20524;-67
2024/04/22 12:28:43;;;;;;;16.40;15.80;;;;;;;;;;5493645;25;20466;-67
2024/04/22 12:31:10;;;;;;;15.50;15.00;;;;;;;;;;5483912;25;20492;-68
2024/04/22 12:33:42;;;;;;;15.80;15.30;;;;;;;;;;5493369;25;20469;-67
2024/04/22 12:36:08;;;;;;;16.57;15.97;;;;;;;;;;5498409;25;20479;-67
2024/04/22 12:38:37;;;;;;;15.07;14.57;;;;;;;;;;5498122;25;20476;-67
2024/04/22 12:41:05;;;;;;;15.87;15.27;;;;;;;;;;5505512;25;20518;-67
2024/04/22 12:43:34;;;;;;;16.07;15.47;;;;;;;;;;5503328;25;20910;-65
2024/04/22 12:46:01;;;;;;;16.63;16.03;;;;;;;;;;5495484;25;20550;-66
2024/04/22 12:51:18;;;;;;;15.60;15.10;;;;;;;;;;5507633;25;20523;-67
2024/04/22 12:53:47;;;;;;;15.90;15.30;;;;;;;;;;5502797;25;20478;-69
2024/04/22 12:56:16;;;;;;;15.97;15.37;;;;;;;;;;5498673;25;20545;-66
2024/04/22 12:58:45;;;;;;;15.97;15.37;;;;;;;;;;5503162;25;20480;-67
2024/04/22 13:01:14;;;;;;;16.37;15.77;;;;;;;;;;5506865;25;20540;-69
2024/04/22 13:03:43;;;;;;;16.07;15.47;;;;;;;;;;5500216;25;20547;-68
2024/04/22 13:06:12;;;;;;;16.37;15.77;;;;;;;;;;5500344;25;20588;-69
2024/04/22 13:08:44;;;;;;;16.63;16.03;;;;;;;;;;5499888;25;20518;-72
2024/04/22 13:11:13;;;;;;;15.57;15.03;;;;;;;;;;5487632;25;20467;-69
2024/04/22 13:13:41;;;;;;;15.73;15.20;;;;;;;;;;5498315;25;20479;-68
2024/04/22 13:16:10;;;;;;;14.90;14.40;;;;;;;;;;5504179;25;20589;-69
2024/04/22 13:18:40;;;;;;;16.20;15.60;;;;;;;;;;5500224;25;20538;-69
2024/04/22 13:21:06;;;;;;;15.30;14.80;;;;;;;;;;5505387;25;20484;-72
2024/04/22 13:23:35;;;;;;;15.30;14.80;;;;;;;;;;5495242;25;21479;-69
2024/04/22 13:26:05;;;;;;;15.03;14.53;;;;;;;;;;5506839;25;20624;-71
2024/04/22 13:28:34;;;;;;;15.83;15.23;;;;;;;;;;5502005;25;20873;-70
2024/04/22 13:31:00;;;;;;;15.50;15.00;;;;;;;;;;5503309;25;21156;-71
2024/04/22 13:33:29;;;;;;;15.83;15.27;;;;;;;;;;5507588;25;20508;-69
2024/04/22 13:35:55;;;;;;;16.00;15.40;;;;;;;;;;5491823;25;20491;-69
2024/04/22 13:38:24;;;;;;;16.03;15.43;;;;;;;;;;5503011;25;20591;-71
2024/04/22 13:40:50;;;;;;;15.37;14.87;;;;;;;;;;5490001;25;20482;-69
2024/04/22 13:43:23;;;;;;;15.20;14.70;;;;;;;;;;5494502;25;20486;-70
2024/04/22 13:45:49;;;;;;;15.67;15.17;;;;;;;;;;5500108;25;21080;-69
2024/04/22 13:48:18;;;;;;;16.17;15.57;;;;;;;;;;5500057;25;20910;-67
2024/04/22 13:50:46;;;;;;;16.13;15.53;;;;;;;;;;5490096;25;20485;-69
2024/04/22 13:53:15;;;;;;;16.60;16.00;;;;;;;;;;5498596;25;20539;-69
2024/04/22 13:55:41;;;;;;;16.77;16.17;;;;;;;;;;5500628;25;20476;-70
2024/04/22 13:58:10;;;;;;;17.07;16.47;;;;;;;;;;5493416;25;21157;-69
2024/04/22 14:00:39;;;;;;;16.80;16.20;;;;;;;;;;5494281;25;20477;-72
2024/04/22 14:03:08;;;;;;;16.43;15.83;;;;;;;;;;5493292;25;20482;-71
2024/04/22 14:05:35;;;;;;;17.20;16.60;;;;;;;;;;5499086;25;20552;-70
2024/04/22 14:08:03;;;;;;;16.47;15.87;;;;;;;;;;5499625;25;21070;-69
2024/04/22 14:10:30;;;;;;;16.90;16.30;;;;;;;;;;5500513;25;20594;-72
2024/04/22 14:12:59;;;;;;;16.20;15.60;;;;;;;;;;5490213;25;20955;-69
2024/04/22 14:15:25;;;;;;;16.43;15.83;;;;;;;;;;5490287;25;20471;-71
2024/04/22 14:17:56;;;;;;;16.70;16.10;;;;;;;;;;5491328;25;20480;-70
2024/04/22 14:20:23;;;;;;;16.40;15.80;;;;;;;;;;5500937;25;20907;-69
2024/04/22 14:22:52;;;;;;;16.40;15.80;;;;;;;;;;5492134;25;20994;-69
2024/04/22 14:25:18;;;;;;;16.40;15.80;;;;;;;;;;5497376;25;20543;-70
2024/04/22 14:27:47;;;;;;;15.53;15.03;;;;;;;;;;5500159;25;20480;-71
2024/04/22 14:30:13;;;;;;;16.17;15.57;;;;;;;;;;5495015;25;20505;-72
2024/04/22 14:32:42;;;;;;;16.47;15.87;;;;;;;;;;5495867;25;20468;-70
2024/04/22 14:35:11;;;;;;;16.70;16.10;;;;;;;;;;5495550;25;20919;-69
2024/04/22 14:37:40;;;;;;;16.70;16.10;;;;;;;;;;5492585;25;20524;-70
2024/04/22 14:40:07;;;;;;;17.00;16.40;;;;;;;;;;5492801;25;21004;-71